Time;durP1;ratioP1;P1;durP2;ratioP2;P2;SDS_P1;SDS_P2;PMS_P1;PMS_P2;Temp;Humidity;BMP_temperature;BMP_pressure;BME280_temperature;BME280_humidity;BME280_pressure;Samples;Min_cycle;Max_cycle;Signal;HPM_P1;HPM_P2
2022/03/23 00:01:07;;;;;;;9.40;5.50;;;;;;;16.29;24.25;98015.56;5113519;28;20039;-28
2022/03/23 00:03:34;;;;;;;6.93;4.95;;;;;;;16.27;24.15;98014.44;5113996;28;20364;-29
2022/03/23 00:06:04;;;;;;;8.02;5.55;;;;;;;16.24;24.15;98010.59;5113594;28;20420;-28
2022/03/23 00:08:30;;;;;;;7.75;5.13;;;;;;;16.29;23.95;98017.53;5113739;28;20024;-28
2022/03/23 00:10:56;;;;;;;6.80;5.15;;;;;;;16.24;24.00;98009.81;5113572;28;20028;-28
2022/03/23 00:13:22;;;;;;;6.55;4.93;;;;;;;16.24;24.18;98009.81;5098653;28;20073;-28
2022/03/23 00:15:48;;;;;;;6.80;4.60;;;;;;;16.27;23.98;98011.72;5117979;28;20027;-28
2022/03/23 00:18:13;;;;;;;6.00;4.57;;;;;;;16.15;24.16;98008.44;5117830;28;20076;-27
2022/03/23 00:20:39;;;;;;;5.90;4.45;;;;;;;16.20;23.83;98006.38;5118038;28;20023;-32
2022/03/23 00:23:05;;;;;;;6.97;4.50;;;;;;;16.23;23.76;98009.03;5117715;28;20512;-32
2022/03/23 00:25:31;;;;;;;7.43;4.63;;;;;;;16.20;24.13;98009.88;5117614;28;20114;-31
2022/03/23 00:27:57;;;;;;;7.43;4.78;;;;;;;16.22;23.97;98004.00;5118028;28;20024;-31
2022/03/23 00:30:23;;;;;;;6.88;4.35;;;;;;;16.24;23.66;98004.34;5117813;28;20077;-32
2022/03/23 00:32:49;;;;;;;6.05;4.82;;;;;;;16.26;23.91;97997.25;5117651;28;20023;-32
2022/03/23 00:35:15;;;;;;;7.72;4.75;;;;;;;16.19;23.83;97991.19;5117773;28;20420;-31
2022/03/23 00:37:43;;;;;;;6.60;4.78;;;;;;;16.16;23.83;97990.81;5117750;28;20032;-32
2022/03/23 00:40:09;;;;;;;7.07;5.10;;;;;;;16.14;24.02;97985.00;5117435;28;20450;-32
2022/03/23 00:42:35;;;;;;;6.63;4.65;;;;;;;16.23;23.76;97997.31;5117376;28;20095;-31
2022/03/23 00:45:03;;;;;;;5.53;4.03;;;;;;;16.19;23.98;97988.44;5117320;28;20026;-32
2022/03/23 00:47:29;;;;;;;5.75;4.70;;;;;;;16.20;23.80;97981.75;5117252;28;20096;-31
2022/03/23 00:49:54;;;;;;;6.32;4.72;;;;;;;16.14;23.92;97985.00;5117240;28;20467;-31
2022/03/23 00:52:20;;;;;;;7.55;5.18;;;;;;;16.23;23.66;97981.66;5117213;28;20035;-31
2022/03/23 00:54:45;;;;;;;7.47;4.60;;;;;;;16.11;23.80;97980.38;5117275;28;20131;-31
2022/03/23 00:57:11;;;;;;;7.55;4.63;;;;;;;16.22;23.93;97977.38;5117086;28;20029;-31
2022/03/23 00:59:37;;;;;;;6.03;4.82;;;;;;;16.20;23.75;97985.25;5116546;28;20067;-31
2022/03/23 01:02:05;;;;;;;6.18;4.28;;;;;;;16.20;23.63;97979.00;5117144;28;20023;-31
2022/03/23 01:04:31;;;;;;;5.78;4.60;;;;;;;16.10;23.89;97978.81;5117022;28;20047;-31
2022/03/23 01:06:57;;;;;;;7.75;4.90;;;;;;;16.19;23.51;97980.22;5116964;28;20035;-31
2022/03/23 01:09:23;;;;;;;7.82;4.63;;;;;;;16.16;23.71;97976.38;5116960;28;20037;-32
2022/03/23 01:11:54;;;;;;;6.85;4.57;;;;;;;16.12;23.69;97976.44;5098530;28;20019;-31
2022/03/23 01:14:22;;;;;;;7.22;4.43;;;;;;;16.20;23.98;97979.00;5116818;28;20031;-31
2022/03/23 01:16:49;;;;;;;5.20;4.35;;;;;;;16.17;23.67;97977.91;5116773;28;20391;-32
2022/03/23 01:19:16;;;;;;;6.97;5.10;;;;;;;16.14;23.53;97978.75;5116796;28;20027;-32
2022/03/23 01:21:42;;;;;;;6.25;4.32;;;;;;;16.14;23.68;97974.06;5116574;28;20129;-32
2022/03/23 01:24:07;;;;;;;5.60;4.07;;;;;;;16.14;23.34;97974.06;5115957;28;20118;-31
2022/03/23 01:26:33;;;;;;;7.35;4.30;;;;;;;16.14;23.36;97976.78;5116821;28;20028;-31
2022/03/23 01:28:59;;;;;;;5.78;4.05;;;;;;;16.09;23.42;97976.50;5116435;28;20077;-32
2022/03/23 01:31:26;;;;;;;5.65;4.20;;;;;;;16.13;23.42;97977.97;5116522;28;20023;-31
2022/03/23 01:33:51;;;;;;;6.90;4.75;;;;;;;16.07;23.43;97987.13;5116329;28;20077;-31
2022/03/23 01:36:17;;;;;;;5.80;4.28;;;;;;;16.11;23.46;97985.06;5116488;28;20020;-31
2022/03/23 01:38:43;;;;;;;7.20;4.32;;;;;;;16.11;23.50;97985.84;5116421;28;20047;-32
2022/03/23 01:41:08;;;;;;;7.38;4.40;;;;;;;16.05;23.48;97987.56;5116281;28;20034;-31
2022/03/23 01:43:34;;;;;;;7.75;4.65;;;;;;;16.06;23.34;97989.09;5116340;28;20535;-32
2022/03/23 01:46:00;;;;;;;7.63;4.97;;;;;;;16.04;23.45;97986.00;5121992;27;20023;-32
2022/03/23 01:48:26;;;;;;;8.73;4.47;;;;;;;16.04;23.46;97977.81;5134647;27;20049;-31
2022/03/23 01:50:52;;;;;;;7.00;4.63;;;;;;;16.07;23.09;97968.72;5135637;27;20383;-32
2022/03/23 01:53:17;;;;;;;6.40;4.18;;;;;;;16.06;23.31;97969.94;5136758;27;20027;-32
2022/03/23 01:55:44;;;;;;;6.97;4.32;;;;;;;16.08;23.39;97975.75;5136455;27;20087;-32
2022/03/23 01:58:10;;;;;;;6.53;4.07;;;;;;;16.06;23.18;97969.19;5136699;27;20027;-31
2022/03/23 02:00:36;;;;;;;5.05;3.80;;;;;;;15.97;23.03;97969.75;5136307;27;20482;-32
2022/03/23 02:03:03;;;;;;;4.47;3.53;;;;;;;16.08;23.35;97962.06;5136383;27;20035;-31
2022/03/23 02:05:28;;;;;;;6.43;4.30;;;;;;;16.07;23.12;97960.50;5136253;27;20027;-32
2022/03/23 02:07:57;;;;;;;5.80;4.13;;;;;;;16.02;22.96;97957.53;5136195;27;20413;-31
2022/03/23 02:10:22;;;;;;;5.60;4.13;;;;;;;15.99;23.23;97961.09;5136396;27;20027;-32
2022/03/23 02:12:48;;;;;;;5.70;3.70;;;;;;;16.04;22.92;97955.91;5136253;27;20045;-31
2022/03/23 02:15:21;;;;;;;6.57;4.38;;;;;;;16.05;22.85;97959.41;5136097;27;20015;-32
2022/03/23 02:17:52;;;;;;;5.65;3.90;;;;;;;15.99;22.73;97945.47;5136032;27;20054;-31
2022/03/23 02:20:19;;;;;;;7.10;4.47;;;;;;;16.00;23.04;97952.47;5136386;27;20027;-31
2022/03/23 02:22:45;;;;;;;5.78;4.00;;;;;;;15.98;22.59;97943.91;5117817;27;20023;-32
2022/03/23 02:25:10;;;;;;;8.38;4.05;;;;;;;16.03;23.10;97948.13;5135953;27;20038;-31
2022/03/23 02:27:38;;;;;;;5.78;4.07;;;;;;;15.96;22.62;97943.56;5135902;27;20062;-32
2022/03/23 02:30:09;;;;;;;5.85;4.63;;;;;;;15.98;22.92;97949.38;5135932;27;20118;-32
2022/03/23 02:32:35;;;;;;;5.72;4.50;;;;;;;15.98;22.81;97943.91;5135806;27;20019;-32
2022/03/23 02:35:02;;;;;;;6.28;3.78;;;;;;;16.02;22.83;97947.34;5134873;27;20024;-32
2022/03/23 02:37:27;;;;;;;6.07;4.47;;;;;;;16.07;22.50;97943.34;5135628;27;20023;-32
2022/03/23 02:39:53;;;;;;;5.63;4.20;;;;;;;15.94;22.47;97943.25;5135999;27;20362;-32
2022/03/23 02:42:19;;;;;;;5.90;3.92;;;;;;;15.93;22.81;97941.69;5135924;27;20022;-32
2022/03/23 02:44:44;;;;;;;5.05;3.85;;;;;;;15.94;22.88;97945.97;5135758;27;20024;-31
2022/03/23 02:47:10;;;;;;;5.22;3.78;;;;;;;16.00;22.53;97938.78;5135711;27;20019;-32
2022/03/23 02:49:36;;;;;;;5.65;3.67;;;;;;;15.92;22.78;97942.91;5135644;27;20027;-32
2022/03/23 02:52:02;;;;;;;5.55;3.80;;;;;;;15.93;22.33;97944.44;5135470;27;20084;-32
2022/03/23 03:02:59;;;;;;;4.95;4.00;;;;;;;15.87;22.70;97948.84;5135490;27;20065;-32
2022/03/23 03:05:25;;;;;;;5.70;4.07;;;;;;;15.87;22.58;97953.56;5135248;27;20413;-32
2022/03/23 03:10:34;;;;;;;5.57;3.78;;;;;;;15.89;22.35;97951.94;5135275;27;20030;-31
2022/03/23 03:13:00;;;;;;;5.22;3.67;;;;;;;15.89;22.31;97960.16;5134953;27;20023;-31
2022/03/23 03:15:26;;;;;;;5.43;3.60;;;;;;;15.93;22.37;97957.34;5135090;27;20023;-31
2022/03/23 03:17:57;;;;;;;5.25;4.07;;;;;;;15.88;22.31;97961.34;5134952;27;20079;-31
2022/03/23 03:20:22;;;;;;;5.00;3.85;;;;;;;15.89;22.22;97957.41;5116489;27;20106;-31
2022/03/23 03:22:48;;;;;;;6.40;4.00;;;;;;;15.93;21.98;97958.13;5134843;27;20121;-32
2022/03/23 03:25:16;;;;;;;6.05;3.95;;;;;;;15.85;22.01;97956.72;5135095;27;20019;-32
2022/03/23 03:27:43;;;;;;;5.22;3.70;;;;;;;15.88;21.77;97955.09;5134637;27;20457;-31
2022/03/23 03:30:11;;;;;;;7.93;4.07;;;;;;;15.86;22.08;97952.78;5134712;27;20425;-31
2022/03/23 03:32:37;;;;;;;5.88;4.03;;;;;;;15.88;21.97;97955.88;5135087;27;20023;-32
2022/03/23 03:35:04;;;;;;;5.05;3.60;;;;;;;15.86;22.11;97960.22;5134546;27;20047;-31
2022/03/23 03:37:29;;;;;;;5.13;3.95;;;;;;;15.89;21.99;97964.84;5134540;27;20596;-31
2022/03/23 03:39:55;;;;;;;5.68;4.40;;;;;;;15.82;21.77;97963.06;5134869;27;20058;-32
2022/03/23 03:42:21;;;;;;;6.43;4.47;;;;;;;15.80;21.94;97959.97;5134492;27;20023;-32
2022/03/23 03:44:48;;;;;;;5.75;4.00;;;;;;;15.76;21.87;97957.31;5134556;27;20023;-32
2022/03/23 03:47:13;;;;;;;6.13;4.25;;;;;;;15.79;22.18;97959.19;5134179;27;20023;-33
2022/03/23 03:49:39;;;;;;;5.07;3.90;;;;;;;15.80;21.79;97959.97;5134511;27;20026;-32
2022/03/23 03:52:05;;;;;;;4.80;3.53;;;;;;;15.80;21.51;97954.50;5134542;27;20023;-31
2022/03/23 03:54:32;;;;;;;5.55;4.07;;;;;;;15.76;21.89;97965.50;5134409;27;20051;-31
2022/03/23 03:56:57;;;;;;;5.97;3.78;;;;;;;15.77;21.72;97958.06;5134470;27;20019;-31
2022/03/23 03:59:23;;;;;;;6.15;4.18;;;;;;;15.80;21.50;97963.47;5134300;27;20432;-33
2022/03/23 04:01:49;;;;;;;5.93;3.88;;;;;;;15.76;21.69;97960.03;5134420;28;20058;-31
2022/03/23 04:04:15;;;;;;;4.82;4.00;;;;;;;15.78;21.70;97956.88;5134259;28;20023;-31
2022/03/23 04:06:41;;;;;;;6.10;4.10;;;;;;;15.77;21.78;97967.06;5134688;28;20358;-31
2022/03/23 04:09:07;;;;;;;6.88;4.18;;;;;;;15.77;21.42;97961.59;5134302;28;20039;-32
2022/03/23 04:11:32;;;;;;;7.80;4.47;;;;;;;15.74;21.54;97958.91;5134209;28;20103;-31
2022/03/23 04:13:58;;;;;;;5.25;4.00;;;;;;;15.77;21.34;97961.59;5134387;28;20458;-31
2022/03/23 04:16:24;;;;;;;6.68;4.38;;;;;;;15.78;21.49;97960.38;5134285;28;20020;-31
2022/03/23 04:18:49;;;;;;;7.85;4.50;;;;;;;15.69;21.45;97956.69;5134205;28;20023;-32
2022/03/23 04:21:16;;;;;;;7.38;4.63;;;;;;;15.69;21.55;97962.94;5134082;28;20023;-31
2022/03/23 04:23:42;;;;;;;5.35;4.35;;;;;;;15.72;21.22;97955.81;5134135;28;20038;-31
2022/03/23 04:26:07;;;;;;;8.93;4.70;;;;;;;15.76;21.82;97959.25;5134087;28;20019;-31
2022/03/23 04:28:33;;;;;;;6.55;4.57;;;;;;;15.70;21.58;97961.72;5134396;28;20023;-31
2022/03/23 04:31:00;;;;;;;6.32;4.22;;;;;;;15.68;21.37;97961.38;5134028;28;20053;-31
2022/03/23 04:33:25;;;;;;;7.45;4.47;;;;;;;15.73;21.50;97962.84;5134252;28;20416;-31
2022/03/23 04:35:51;;;;;;;5.57;4.07;;;;;;;15.65;21.38;97959.50;5133910;28;20026;-32
2022/03/23 04:38:16;;;;;;;4.82;3.88;;;;;;;15.68;21.33;97964.13;5134090;28;20015;-31
2022/03/23 04:40:42;;;;;;;6.00;4.28;;;;;;;15.71;21.25;97967.97;5134126;28;20080;-32
2022/03/23 04:43:08;;;;;;;6.75;4.10;;;;;;;15.71;21.25;97962.47;5115513;28;20023;-31
2022/03/23 04:45:33;;;;;;;7.38;4.65;;;;;;;15.69;21.36;97964.91;5134272;28;20471;-32
2022/03/23 04:47:59;;;;;;;6.18;4.60;;;;;;;15.64;21.39;97959.91;5134119;28;20064;-31
2022/03/23 04:50:25;;;;;;;7.78;5.38;;;;;;;15.68;21.20;97955.16;5133930;28;20042;-32
2022/03/23 04:52:52;;;;;;;6.50;4.43;;;;;;;15.69;21.27;97964.91;5133867;28;20030;-32
2022/03/23 04:55:18;;;;;;;7.18;4.72;;;;;;;15.72;21.32;97973.00;5134154;28;20015;-31
2022/03/23 04:57:44;;;;;;;6.35;4.95;;;;;;;15.69;21.24;97970.38;5134210;27;20027;-31
2022/03/23 05:00:13;;;;;;;7.47;4.85;;;;;;;15.69;20.85;97967.63;5137470;27;20066;-31
2022/03/23 05:02:39;;;;;;;6.88;4.88;;;;;;;15.61;21.07;97961.53;5137604;27;20016;-31
2022/03/23 05:05:06;;;;;;;7.45;5.00;;;;;;;15.66;20.99;97969.25;5137447;27;20027;-31
2022/03/23 05:07:32;;;;;;;7.28;4.90;;;;;;;15.65;21.03;97969.66;5137370;27;20030;-31
2022/03/23 05:09:58;;;;;;;7.00;4.95;;;;;;;15.68;21.31;97964.13;5137472;27;20023;-31
2022/03/23 05:12:24;;;;;;;6.57;4.80;;;;;;;15.66;21.33;97971.97;5137630;27;20029;-31
2022/03/23 05:14:49;;;;;;;6.25;4.47;;;;;;;15.66;20.91;97966.50;5137404;27;20019;-32
2022/03/23 05:17:15;;;;;;;6.90;4.88;;;;;;;15.61;20.94;97971.69;5137212;27;20462;-31
2022/03/23 05:19:41;;;;;;;6.57;4.95;;;;;;;15.59;21.11;97977.56;5137420;27;20027;-31
2022/03/23 05:22:06;;;;;;;7.00;5.00;;;;;;;15.63;21.09;97972.03;5137312;27;20023;-32
2022/03/23 05:24:32;;;;;;;6.97;4.60;;;;;;;15.57;21.06;97968.28;5137200;27;20023;-31
2022/03/23 05:26:58;;;;;;;6.68;4.85;;;;;;;15.58;21.21;97975.28;5137096;27;20023;-31
2022/03/23 05:29:24;;;;;;;6.88;4.65;;;;;;;15.57;21.09;97974.50;5136973;27;20030;-32
2022/03/23 05:31:49;;;;;;;7.57;4.40;;;;;;;15.59;21.13;97971.34;5137111;27;20041;-31
2022/03/23 05:34:15;;;;;;;6.68;5.03;;;;;;;15.59;21.01;97974.84;5136955;27;20020;-32
2022/03/23 05:36:41;;;;;;;7.15;4.95;;;;;;;15.58;21.20;97975.28;5136875;27;20023;-31
2022/03/23 05:39:07;;;;;;;8.85;5.00;;;;;;;15.53;21.21;97973.78;5137041;27;20495;-32
2022/03/23 05:41:32;;;;;;;7.88;5.40;;;;;;;15.59;21.14;97976.81;5136782;27;20359;-31
2022/03/23 05:43:58;;;;;;;7.10;4.82;;;;;;;15.64;21.00;97982.56;5136739;27;20034;-32
2022/03/23 05:46:25;;;;;;;6.78;5.13;;;;;;;15.61;20.99;97969.72;5136943;27;20019;-31
2022/03/23 05:48:53;;;;;;;7.53;5.20;;;;;;;15.56;21.17;97972.97;5136726;27;20015;-31
2022/03/23 05:51:18;;;;;;;8.90;5.50;;;;;;;15.51;21.28;97967.19;5136689;27;20502;-31
2022/03/23 05:53:44;;;;;;;7.10;5.15;;;;;;;15.50;20.92;97969.16;5118191;27;20055;-32
2022/03/23 05:56:10;;;;;;;7.22;5.30;;;;;;;15.52;20.85;97966.00;5136684;27;20015;-32
2022/03/23 05:58:35;;;;;;;6.88;4.75;;;;;;;15.55;20.94;97965.97;5136534;27;20094;-31
2022/03/23 06:01:02;;;;;;;7.45;5.22;;;;;;;15.59;21.14;97968.59;5136054;27;20097;-32
2022/03/23 06:03:28;;;;;;;7.25;5.40;;;;;;;15.58;20.90;97970.56;5134644;27;20034;-31
2022/03/23 06:05:53;;;;;;;7.55;5.40;;;;;;;15.51;21.37;97978.13;5134093;27;20023;-32
2022/03/23 06:08:20;;;;;;;7.35;4.90;;;;;;;15.37;21.56;97977.22;5134387;27;20110;-31
2022/03/23 06:10:46;;;;;;;7.20;4.75;;;;;;;15.43;21.09;97975.53;5134344;27;20031;-31
2022/03/23 06:13:12;;;;;;;9.27;5.78;;;;;;;15.54;21.13;97980.78;5134387;27;20030;-32
2022/03/23 06:15:37;;;;;;;9.00;5.07;;;;;;;15.58;21.34;97981.50;5115037;27;20026;-31
2022/03/23 06:18:03;;;;;;;8.43;5.15;;;;;;;15.59;21.33;97983.03;5134235;27;20026;-31
2022/03/23 06:20:28;;;;;;;7.38;5.70;;;;;;;15.60;21.09;97990.06;5134201;27;20459;-31
2022/03/23 06:22:54;;;;;;;6.93;5.38;;;;;;;15.60;21.25;97981.84;5134032;27;20026;-31
2022/03/23 06:25:20;;;;;;;6.68;5.07;;;;;;;15.60;21.17;97987.31;5133921;27;20518;-31
2022/03/23 06:27:45;;;;;;;6.43;4.97;;;;;;;15.52;21.35;97987.88;5133536;27;20030;-32
2022/03/23 06:30:12;;;;;;;12.23;5.53;;;;;;;15.59;21.43;97987.75;5133659;27;20355;-32
2022/03/23 06:32:38;;;;;;;8.73;5.22;;;;;;;15.59;21.61;97983.03;5133841;27;20060;-32
2022/03/23 06:35:04;;;;;;;10.02;5.60;;;;;;;15.64;21.42;97992.72;5133574;27;20072;-31
2022/03/23 06:37:30;;;;;;;10.45;5.75;;;;;;;15.59;21.39;97993.22;5128625;27;20085;-32
2022/03/23 06:39:56;;;;;;;14.43;6.10;;;;;;;15.63;21.82;97997.44;5115074;27;20387;-32
2022/03/23 06:42:23;;;;;;;12.23;5.35;;;;;;;15.62;21.87;98011.50;5133665;27;20084;-32
2022/03/23 06:44:49;;;;;;;8.68;5.45;;;;;;;15.58;21.76;98008.09;5133488;27;20030;-31
2022/03/23 06:47:15;;;;;;;7.57;5.40;;;;;;;15.59;21.61;98013.13;5133657;27;20023;-31
2022/03/23 06:49:40;;;;;;;12.43;5.45;;;;;;;15.66;21.92;98012.22;5131604;27;20098;-31
2022/03/23 06:52:06;;;;;;;8.23;5.30;;;;;;;15.65;21.85;98008.72;5133275;27;20022;-31
2022/03/23 06:54:32;;;;;;;11.35;6.03;;;;;;;15.61;21.53;98012.72;5127576;27;20031;-32
2022/03/23 06:56:57;;;;;;;12.38;5.93;;;;;;;15.61;21.83;98018.19;5129927;27;20026;-31
2022/03/23 06:59:23;;;;;;;13.18;6.00;;;;;;;15.60;21.79;98020.13;5133006;27;20019;-31
2022/03/23 07:01:49;;;;;;;13.93;6.57;;;;;;;15.54;21.69;98012.84;5133542;27;20066;-32
2022/03/23 07:04:15;;;;;;;10.95;6.60;;;;;;;15.60;21.96;98011.16;5133132;27;20015;-31
2022/03/23 07:06:41;;;;;;;11.13;6.72;;;;;;;15.61;22.04;98012.72;5133199;27;20027;-31
2022/03/23 07:11:53;;;;;;;13.07;6.45;;;;;;;15.61;22.18;98018.19;5132865;27;20092;-32
2022/03/23 07:14:18;;;;;;;9.93;6.18;;;;;;;15.58;21.99;98016.31;5133236;27;20031;-31
2022/03/23 07:16:44;;;;;;;8.98;5.88;;;;;;;15.52;22.08;98015.22;5132754;27;20035;-32
2022/03/23 07:19:10;;;;;;;12.32;6.05;;;;;;;15.54;21.97;98015.56;5132806;27;20103;-31
2022/03/23 07:21:36;;;;;;;11.15;6.13;;;;;;;15.52;22.08;98017.94;5132284;27;20027;-32
2022/03/23 07:24:01;;;;;;;13.95;6.80;;;;;;;15.60;21.93;98019.38;5132965;27;20440;-31
2022/03/23 07:26:27;;;;;;;9.45;6.10;;;;;;;15.47;22.20;98011.00;5132904;27;20034;-31
2022/03/23 07:28:53;;;;;;;8.38;5.78;;;;;;;15.60;22.09;98019.38;5132248;27;20027;-33
2022/03/23 07:31:18;;;;;;;14.07;6.60;;;;;;;15.66;22.23;98020.44;5133001;27;20102;-31
2022/03/23 07:33:44;;;;;;;7.53;5.70;;;;;;;15.56;22.26;98015.94;5132803;27;20462;-31
2022/03/23 07:36:12;;;;;;;8.68;5.60;;;;;;;15.55;22.12;98019.88;5121886;27;20098;-31
2022/03/23 07:38:38;;;;;;;13.68;5.95;;;;;;;15.59;21.97;98020.56;5112265;28;20455;-31
2022/03/23 07:41:04;;;;;;;8.82;5.78;;;;;;;15.57;22.23;98018.28;5093426;28;20123;-32
2022/03/23 07:43:32;;;;;;;8.60;5.85;;;;;;;15.42;22.54;98022.44;5112136;28;20034;-32
2022/03/23 07:45:58;;;;;;;8.43;6.00;;;;;;;15.41;22.80;98024.41;5132371;27;20020;-31
2022/03/23 07:48:24;;;;;;;8.60;5.15;;;;;;;15.59;22.33;98020.56;5134501;27;20374;-33
2022/03/23 07:50:53;;;;;;;7.55;5.68;;;;;;;15.59;22.59;98012.34;5134699;27;20029;-31
2022/03/23 07:53:19;;;;;;;10.95;5.97;;;;;;;15.54;22.61;98023.78;5134706;27;20031;-31
2022/03/23 07:55:45;;;;;;;7.65;6.13;;;;;;;15.37;22.46;98022.91;5134463;27;20062;-31
2022/03/23 07:58:11;;;;;;;8.45;5.88;;;;;;;15.60;22.47;98027.56;5134546;27;20050;-31
2022/03/23 08:00:38;;;;;;;9.88;5.60;;;;;;;15.62;22.37;98027.94;5134162;27;20490;-31
2022/03/23 08:03:07;;;;;;;9.55;5.63;;;;;;;15.57;22.45;98029.22;5134299;27;20035;-31
2022/03/23 08:05:33;;;;;;;9.77;5.53;;;;;;;15.57;22.31;98031.16;5134181;27;20023;-32
2022/03/23 08:07:58;;;;;;;9.65;5.47;;;;;;;15.51;22.65;98030.06;5134371;27;20494;-32
2022/03/23 08:10:25;;;;;;;8.32;5.70;;;;;;;15.57;22.69;98022.97;5134196;27;20023;-31
2022/03/23 08:12:53;;;;;;;7.95;5.68;;;;;;;15.64;22.53;98025.53;5133901;27;20102;-31
2022/03/23 08:15:19;;;;;;;10.80;5.93;;;;;;;15.46;22.76;98025.84;5134605;27;20038;-31
2022/03/23 08:17:44;;;;;;;10.02;5.97;;;;;;;15.43;22.78;98023.97;5134222;27;20015;-32
2022/03/23 08:22:59;;;;;;;10.27;5.47;;;;;;;15.35;22.85;98028.78;5133886;27;20093;-31
2022/03/23 08:25:25;;;;;;;9.02;5.45;;;;;;;15.54;22.72;98034.72;5134126;28;20019;-32
2022/03/23 08:27:51;;;;;;;9.00;5.40;;;;;;;15.31;22.62;98030.84;5133818;28;20022;-31
2022/03/23 08:30:16;;;;;;;7.50;5.32;;;;;;;15.37;23.00;98026.41;5133316;28;20015;-32
2022/03/23 08:32:42;;;;;;;9.75;5.72;;;;;;;15.44;22.93;98028.25;5134248;27;20054;-32
2022/03/23 08:35:08;;;;;;;8.82;5.85;;;;;;;15.43;23.05;98038.41;5138135;27;20019;-31
2022/03/23 08:37:34;;;;;;;9.23;5.78;;;;;;;15.21;22.33;98033.75;5137463;27;20094;-31
2022/03/23 08:40:06;;;;;;;8.35;5.70;;;;;;;15.16;23.47;98035.00;5137868;27;20110;-31
2022/03/23 08:42:32;;;;;;;8.90;5.93;;;;;;;15.14;22.71;98034.66;5137747;27;20561;-31
2022/03/23 08:44:58;;;;;;;8.75;5.80;;;;;;;15.35;22.43;98023.31;5137937;27;20035;-32
2022/03/23 08:47:23;;;;;;;7.30;5.50;;;;;;;15.21;22.26;98023.56;5137845;27;20033;-31
2022/03/23 08:49:49;;;;;;;8.45;5.28;;;;;;;15.30;23.35;98029.28;5118805;27;20114;-31
2022/03/23 08:52:15;;;;;;;7.65;5.18;;;;;;;15.26;22.48;98028.56;5135695;27;20022;-32
2022/03/23 08:54:41;;;;;;;9.32;6.15;;;;;;;14.95;22.80;98019.00;5137904;27;20387;-31
2022/03/23 08:57:07;;;;;;;7.88;5.68;;;;;;;15.26;23.67;98028.56;5137911;27;20023;-31
2022/03/23 08:59:33;;;;;;;9.02;5.45;;;;;;;15.25;23.55;98029.75;5137482;27;20168;-31
2022/03/23 09:01:59;;;;;;;7.90;5.57;;;;;;;15.30;22.68;98021.09;5137380;27;20030;-32
2022/03/23 09:04:24;;;;;;;8.27;5.95;;;;;;;15.12;22.19;98020.63;5137100;27;20109;-31
2022/03/23 09:06:50;;;;;;;10.07;6.05;;;;;;;14.96;22.09;98024.00;5137356;27;20047;-31
2022/03/23 09:09:16;;;;;;;9.45;6.35;;;;;;;15.22;22.71;98021.63;5137355;27;20386;-31
2022/03/23 09:11:43;;;;;;;9.68;6.25;;;;;;;15.07;22.28;98019.16;5137354;27;20027;-32
2022/03/23 09:14:10;;;;;;;8.50;5.72;;;;;;;15.37;22.26;98020.16;5137778;27;20113;-32
2022/03/23 09:16:35;;;;;;;8.70;6.10;;;;;;;15.60;22.78;98022.09;5137416;27;20077;-31
2022/03/23 09:19:02;;;;;;;5.90;4.63;;;;;;;15.54;23.36;98031.97;5137133;27;20467;-31
2022/03/23 09:21:27;;;;;;;9.35;4.97;;;;;;;15.44;23.44;98015.34;5118894;27;20543;-32
2022/03/23 09:23:53;;;;;;;8.02;5.25;;;;;;;15.49;22.83;98011.34;5137029;27;20056;-31
2022/03/23 09:26:19;;;;;;;8.57;5.07;;;;;;;15.63;23.65;98016.56;5136865;27;20087;-31
2022/03/23 09:28:44;;;;;;;8.57;5.55;;;;;;;15.52;22.65;98009.75;5137026;27;20022;-31
2022/03/23 09:31:10;;;;;;;7.80;6.05;;;;;;;15.65;23.53;98018.88;5136906;27;20015;-31
2022/03/23 09:33:36;;;;;;;7.63;5.05;;;;;;;15.75;23.61;98013.19;5135807;27;20034;-32
2022/03/23 09:36:02;;;;;;;8.70;5.38;;;;;;;15.80;23.54;98012.72;5137095;27;20015;-31
2022/03/23 09:38:27;;;;;;;6.75;5.15;;;;;;;15.81;23.56;98002.53;5118308;27;20486;-31
2022/03/23 09:40:53;;;;;;;13.45;5.07;;;;;;;15.28;21.01;98011.75;5136832;27;20027;-32
2022/03/23 09:43:24;;;;;;;11.38;6.50;;;;;;;15.19;20.73;98000.63;5137053;27;20458;-31
2022/03/23 09:45:51;;;;;;;12.48;5.60;;;;;;;15.48;22.16;98009.03;5118067;27;20110;-31
2022/03/23 09:48:22;;;;;;;9.80;5.85;;;;;;;15.68;21.97;97996.16;5118390;27;20027;-32
2022/03/23 09:50:51;;;;;;;12.50;6.40;;;;;;;15.77;21.96;97986.19;5137117;27;20030;-31
2022/03/23 09:53:16;;;;;;;7.55;5.95;;;;;;;15.73;22.13;97998.41;5136715;27;20420;-31
2022/03/23 09:55:45;;;;;;;11.52;6.35;;;;;;;15.84;22.09;97993.47;5136942;27;20015;-31
2022/03/23 09:58:11;;;;;;;8.43;6.20;;;;;;;15.92;22.21;97994.88;5136578;27;20027;-31
2022/03/23 10:00:42;;;;;;;10.68;6.10;;;;;;;15.90;22.67;97994.53;5136304;27;20491;-31
2022/03/23 10:03:13;;;;;;;6.28;5.30;;;;;;;15.91;23.00;97985.13;5136628;27;20023;-31
2022/03/23 10:06:00;;;;;;;8.90;6.60;;;;;;;15.86;22.80;97990.31;5136319;27;20507;-31
2022/03/23 10:08:34;;;;;;;7.30;5.82;;;;;;;15.91;22.96;97985.13;5136434;27;20019;-31
2022/03/23 10:11:18;;;;;;;10.27;6.50;;;;;;;15.88;23.07;97977.75;5136360;27;20107;-31
2022/03/23 10:13:43;;;;;;;9.32;5.78;;;;;;;15.96;23.10;97984.59;5136180;27;20027;-31
2022/03/23 10:16:46;;;;;;;14.98;5.82;;;;;;;15.83;23.69;97980.97;5136424;27;20019;-31
2022/03/23 10:19:13;;;;;;;10.23;6.05;;;;;;;15.93;22.64;97982.75;5136132;27;20107;-32
2022/03/23 10:21:39;;;;;;;7.35;5.35;;;;;;;15.98;23.29;97974.03;5136281;27;20102;-31
2022/03/23 10:24:04;;;;;;;11.25;5.80;;;;;;;15.95;23.18;97979.59;5135932;27;20538;-31
2022/03/23 10:26:38;;;;;;;9.07;5.30;;;;;;;16.02;23.36;97971.97;5135937;27;20359;-31
2022/03/23 10:29:11;;;;;;;8.73;5.75;;;;;;;15.99;23.51;97969.31;5135770;27;20071;-31
2022/03/23 10:31:37;;;;;;;8.20;5.35;;;;;;;16.00;23.40;97966.16;5135973;27;20050;-32
2022/03/23 10:34:10;;;;;;;8.57;5.55;;;;;;;15.96;23.43;97962.72;5135652;27;20820;-32
2022/03/23 10:36:38;;;;;;;8.80;5.85;;;;;;;16.00;23.41;97968.13;5135847;27;20022;-32
2022/03/23 10:39:06;;;;;;;8.00;5.22;;;;;;;16.02;23.47;97958.31;5136034;27;20026;-32
2022/03/23 10:41:32;;;;;;;9.02;5.68;;;;;;;16.04;23.31;97969.59;5117348;27;20031;-32
2022/03/23 10:43:59;;;;;;;7.45;5.25;;;;;;;16.03;23.32;97957.09;5135941;27;20030;-32
2022/03/23 10:46:25;;;;;;;7.88;5.45;;;;;;;16.00;23.40;97960.69;5135542;27;20083;-33
2022/03/23 10:48:58;;;;;;;7.53;5.80;;;;;;;16.01;23.28;97955.97;5135812;27;20415;-31
2022/03/23 10:51:29;;;;;;;9.25;5.38;;;;;;;16.05;23.48;97960.19;5117238;27;20038;-32
2022/03/23 10:53:56;;;;;;;8.48;5.60;;;;;;;16.06;23.36;97952.75;5135614;27;20428;-32
2022/03/23 10:56:36;;;;;;;8.15;5.82;;;;;;;16.08;23.33;97947.59;5134630;27;20497;-33
2022/03/23 10:59:26;;;;;;;8.73;5.35;;;;;;;16.06;23.26;97945.31;5135354;27;20067;-32
2022/03/23 11:01:57;;;;;;;7.72;5.55;;;;;;;16.08;23.29;97951.13;5135574;27;20046;-32
2022/03/23 11:04:29;;;;;;;8.95;5.38;;;;;;;16.02;23.14;97941.09;5135780;27;20110;-32
2022/03/23 11:06:59;;;;;;;7.88;5.18;;;;;;;16.09;23.18;97940.94;5135271;27;20019;-32
2022/03/23 11:18:11;;;;;;;6.03;4.80;;;;;;;16.15;22.81;97931.81;5135052;27;20034;-31
2022/03/23 11:20:43;;;;;;;7.68;5.50;;;;;;;16.10;22.78;97924.09;5135064;27;20027;-34
2022/03/23 11:23:20;;;;;;;8.63;5.22;;;;;;;16.13;22.61;97920.50;5134929;27;20034;-31
2022/03/23 11:25:47;;;;;;;8.82;5.03;;;;;;;16.26;22.77;97922.56;5134792;27;20531;-32
2022/03/23 11:28:15;;;;;;;8.70;5.65;;;;;;;16.24;22.65;97914.00;5135268;27;20113;-32
2022/03/23 11:30:42;;;;;;;10.50;5.18;;;;;;;16.26;22.64;97914.34;5134622;27;20015;-31
2022/03/23 11:33:14;;;;;;;11.70;5.13;;;;;;;16.16;22.76;97910.69;5116314;27;20023;-32
2022/03/23 11:35:49;;;;;;;10.98;5.88;;;;;;;16.14;22.97;97900.16;5134907;27;20030;-31
2022/03/23 11:38:22;;;;;;;9.82;5.38;;;;;;;16.20;22.82;97905.88;5134817;27;20027;-32
2022/03/23 11:40:50;;;;;;;7.28;4.85;;;;;;;16.15;22.89;97898.19;5134658;27;20470;-32
2022/03/23 11:43:18;;;;;;;8.65;4.78;;;;;;;16.22;22.94;97891.75;5134787;27;20027;-31
2022/03/23 11:45:46;;;;;;;8.80;5.03;;;;;;;16.24;22.78;97886.63;5134345;27;20474;-32
2022/03/23 11:48:24;;;;;;;7.90;5.50;;;;;;;16.21;22.53;97879.28;5134767;27;20027;-32
2022/03/23 11:50:58;;;;;;;8.88;5.05;;;;;;;16.27;22.85;97872.88;5134714;27;20375;-32
2022/03/23 11:54:08;;;;;;;8.20;5.13;;;;;;;16.20;22.83;97872.25;5134679;27;20027;-32
2022/03/23 11:56:38;;;;;;;8.90;5.32;;;;;;;16.22;22.78;97872.59;5051147;28;20021;-32